sensor_id;sensor_type;location;lat;lon;timestamp;pressure;altitude;pressure_sealevel;temperature
11849;BMP180;5983;49.966;8.052;2024-02-14T00:01:24;100871.00;;;7.40
11849;BMP180;5983;49.966;8.052;2024-02-14T00:03:51;100869.00;;;7.40
11849;BMP180;5983;49.966;8.052;2024-02-14T00:06:18;100868.00;;;7.40
11849;BMP180;5983;49.966;8.052;2024-02-14T00:08:44;100863.00;;;7.40
11849;BMP180;5983;49.966;8.052;2024-02-14T00:11:11;100858.00;;;7.40
11849;BMP180;5983;49.966;8.052;2024-02-14T00:13:39;100858.00;;;7.30
11849;BMP180;5983;49.966;8.052;2024-02-14T00:16:07;100854.00;;;7.30
11849;BMP180;5983;49.966;8.052;2024-02-14T00:18:34;100849.00;;;7.30
11849;BMP180;5983;49.966;8.052;2024-02-14T00:21:01;100858.00;;;7.30
11849;BMP180;5983;49.966;8.052;2024-02-14T00:23:28;100851.00;;;7.30
11849;BMP180;5983;49.966;8.052;2024-02-14T00:25:55;100851.00;;;7.30
11849;BMP180;5983;49.966;8.052;2024-02-14T00:30:57;100849.00;;;7.30
11849;BMP180;5983;49.966;8.052;2024-02-14T00:33:25;100855.00;;;7.20
11849;BMP180;5983;49.966;8.052;2024-02-14T00:35:52;100852.00;;;7.30
11849;BMP180;5983;49.966;8.052;2024-02-14T00:38:19;100848.00;;;7.20
11849;BMP180;5983;49.966;8.052;2024-02-14T00:40:46;100843.00;;;7.20
11849;BMP180;5983;49.966;8.052;2024-02-14T00:43:12;100843.00;;;7.30
11849;BMP180;5983;49.966;8.052;2024-02-14T00:45:39;100835.00;;;7.20
11849;BMP180;5983;49.966;8.052;2024-02-14T00:48:07;100828.00;;;7.20
11849;BMP180;5983;49.966;8.052;2024-02-14T00:50:35;100822.00;;;7.30
11849;BMP180;5983;49.966;8.052;2024-02-14T00:53:03;100828.00;;;7.30
11849;BMP180;5983;49.966;8.052;2024-02-14T00:55:30;100833.00;;;7.30
11849;BMP180;5983;49.966;8.052;2024-02-14T00:57:57;100830.00;;;7.30
11849;BMP180;5983;49.966;8.052;2024-02-14T01:00:24;100822.00;;;7.30
11849;BMP180;5983;49.966;8.052;2024-02-14T01:02:51;100819.00;;;7.30
11849;BMP180;5983;49.966;8.052;2024-02-14T01:05:18;100818.00;;;7.30
11849;BMP180;5983;49.966;8.052;2024-02-14T01:07:46;100823.00;;;7.30
11849;BMP180;5983;49.966;8.052;2024-02-14T01:10:13;100813.00;;;7.30
11849;BMP180;5983;49.966;8.052;2024-02-14T01:12:39;100815.00;;;7.20
11849;BMP180;5983;49.966;8.052;2024-02-14T01:15:07;100815.00;;;7.20
11849;BMP180;5983;49.966;8.052;2024-02-14T01:17:34;100815.00;;;7.20
11849;BMP180;5983;49.966;8.052;2024-02-14T01:20:01;100818.00;;;7.20
11849;BMP180;5983;49.966;8.052;2024-02-14T01:22:28;100816.00;;;7.20
11849;BMP180;5983;49.966;8.052;2024-02-14T01:24:56;100826.00;;;7.10
11849;BMP180;5983;49.966;8.052;2024-02-14T01:27:23;100825.00;;;7.10
11849;BMP180;5983;49.966;8.052;2024-02-14T01:29:50;100828.00;;;7.10
11849;BMP180;5983;49.966;8.052;2024-02-14T01:32:17;100825.00;;;7.10
11849;BMP180;5983;49.966;8.052;2024-02-14T01:34:44;100825.00;;;7.10
11849;BMP180;5983;49.966;8.052;2024-02-14T01:37:11;100820.00;;;7.00
11849;BMP180;5983;49.966;8.052;2024-02-14T01:39:37;100823.00;;;7.00
11849;BMP180;5983;49.966;8.052;2024-02-14T01:42:05;100820.00;;;7.00
11849;BMP180;5983;49.966;8.052;2024-02-14T01:44:33;100817.00;;;7.00
11849;BMP180;5983;49.966;8.052;2024-02-14T01:47:01;100816.00;;;7.00
11849;BMP180;5983;49.966;8.052;2024-02-14T01:49:28;100814.00;;;7.00
11849;BMP180;5983;49.966;8.052;2024-02-14T01:51:59;100810.00;;;6.90
11849;BMP180;5983;49.966;8.052;2024-02-14T01:54:28;100809.00;;;6.90
11849;BMP180;5983;49.966;8.052;2024-02-14T01:56:56;100790.00;;;6.90
11849;BMP180;5983;49.966;8.052;2024-02-14T01:59:26;100786.00;;;6.90
11849;BMP180;5983;49.966;8.052;2024-02-14T02:01:53;100785.00;;;6.80
11849;BMP180;5983;49.966;8.052;2024-02-14T02:04:19;100793.00;;;6.80
11849;BMP180;5983;49.966;8.052;2024-02-14T02:06:47;100783.00;;;6.80
11849;BMP180;5983;49.966;8.052;2024-02-14T02:09:14;100781.00;;;6.80
11849;BMP180;5983;49.966;8.052;2024-02-14T02:11:45;100785.00;;;6.80
11849;BMP180;5983;49.966;8.052;2024-02-14T02:14:13;100785.00;;;6.70
11849;BMP180;5983;49.966;8.052;2024-02-14T02:16:41;100786.00;;;6.70
11849;BMP180;5983;49.966;8.052;2024-02-14T02:19:08;100786.00;;;6.70
11849;BMP180;5983;49.966;8.052;2024-02-14T02:21:35;100794.00;;;6.70
11849;BMP180;5983;49.966;8.052;2024-02-14T02:24:03;100786.00;;;6.80
11849;BMP180;5983;49.966;8.052;2024-02-14T02:26:30;100784.00;;;6.80
11849;BMP180;5983;49.966;8.052;2024-02-14T02:28:57;100781.00;;;6.80
11849;BMP180;5983;49.966;8.052;2024-02-14T02:31:25;100786.00;;;6.90
11849;BMP180;5983;49.966;8.052;2024-02-14T02:33:52;100782.00;;;6.90
11849;BMP180;5983;49.966;8.052;2024-02-14T02:36:19;100790.00;;;6.90
11849;BMP180;5983;49.966;8.052;2024-02-14T02:38:45;100788.00;;;6.90
11849;BMP180;5983;49.966;8.052;2024-02-14T02:41:13;100792.00;;;6.90
11849;BMP180;5983;49.966;8.052;2024-02-14T02:43:39;100797.00;;;7.00
11849;BMP180;5983;49.966;8.052;2024-02-14T02:46:08;100792.00;;;7.00
11849;BMP180;5983;49.966;8.052;2024-02-14T02:48:35;100784.00;;;7.00
11849;BMP180;5983;49.966;8.052;2024-02-14T02:51:02;100778.00;;;7.00
11849;BMP180;5983;49.966;8.052;2024-02-14T02:53:28;100793.00;;;7.00
11849;BMP180;5983;49.966;8.052;2024-02-14T02:55:55;100784.00;;;7.00
11849;BMP180;5983;49.966;8.052;2024-02-14T02:58:24;100790.00;;;7.00
11849;BMP180;5983;49.966;8.052;2024-02-14T03:00:52;100801.00;;;7.00
11849;BMP180;5983;49.966;8.052;2024-02-14T03:03:21;100795.00;;;7.00
11849;BMP180;5983;49.966;8.052;2024-02-14T03:05:51;100791.00;;;7.00
11849;BMP180;5983;49.966;8.052;2024-02-14T03:08:19;100797.00;;;7.10
11849;BMP180;5983;49.966;8.052;2024-02-14T03:10:51;100790.00;;;7.00
11849;BMP180;5983;49.966;8.052;2024-02-14T03:13:17;100802.00;;;7.10
11849;BMP180;5983;49.966;8.052;2024-02-14T03:15:46;100803.00;;;7.10
11849;BMP180;5983;49.966;8.052;2024-02-14T03:18:13;100793.00;;;7.10
11849;BMP180;5983;49.966;8.052;2024-02-14T03:20:40;100784.00;;;7.20
11849;BMP180;5983;49.966;8.052;2024-02-14T03:23:07;100785.00;;;7.20
11849;BMP180;5983;49.966;8.052;2024-02-14T03:25:34;100787.00;;;7.20
11849;BMP180;5983;49.966;8.052;2024-02-14T03:28:02;100792.00;;;7.20
11849;BMP180;5983;49.966;8.052;2024-02-14T03:30:34;100795.00;;;7.20
11849;BMP180;5983;49.966;8.052;2024-02-14T03:33:02;100788.00;;;7.20
11849;BMP180;5983;49.966;8.052;2024-02-14T03:35:29;100796.00;;;7.20
11849;BMP180;5983;49.966;8.052;2024-02-14T03:37:56;100793.00;;;7.10
11849;BMP180;5983;49.966;8.052;2024-02-14T03:40:23;100792.00;;;7.20
11849;BMP180;5983;49.966;8.052;2024-02-14T03:42:49;100791.00;;;7.20
11849;BMP180;5983;49.966;8.052;2024-02-14T03:45:17;100796.00;;;7.20
11849;BMP180;5983;49.966;8.052;2024-02-14T03:47:44;100791.00;;;7.20
11849;BMP180;5983;49.966;8.052;2024-02-14T03:50:12;100800.00;;;7.20
11849;BMP180;5983;49.966;8.052;2024-02-14T03:52:39;100796.00;;;7.30
11849;BMP180;5983;49.966;8.052;2024-02-14T03:55:08;100803.00;;;7.30
11849;BMP180;5983;49.966;8.052;2024-02-14T03:57:38;100810.00;;;7.30
11849;BMP180;5983;49.966;8.052;2024-02-14T04:00:06;100801.00;;;7.30
11849;BMP180;5983;49.966;8.052;2024-02-14T04:02:35;100806.00;;;7.20
11849;BMP180;5983;49.966;8.052;2024-02-14T04:05:02;100800.00;;;7.20
11849;BMP180;5983;49.966;8.052;2024-02-14T04:07:30;100803.00;;;7.20
11849;BMP180;5983;49.966;8.052;2024-02-14T04:09:57;100812.00;;;7.20
11849;BMP180;5983;49.966;8.052;2024-02-14T04:12:24;100816.00;;;7.30
11849;BMP180;5983;49.966;8.052;2024-02-14T04:14:50;100815.00;;;7.30
11849;BMP180;5983;49.966;8.052;2024-02-14T04:17:17;100815.00;;;7.30
11849;BMP180;5983;49.966;8.052;2024-02-14T04:19:44;100821.00;;;7.30
11849;BMP180;5983;49.966;8.052;2024-02-14T04:22:10;100831.00;;;7.30
11849;BMP180;5983;49.966;8.052;2024-02-14T04:24:38;100826.00;;;7.30
11849;BMP180;5983;49.966;8.052;2024-02-14T04:27:05;100834.00;;;7.30
11849;BMP180;5983;49.966;8.052;2024-02-14T04:29:32;100828.00;;;7.40
11849;BMP180;5983;49.966;8.052;2024-02-14T04:32:00;100831.00;;;7.40
11849;BMP180;5983;49.966;8.052;2024-02-14T04:34:27;100820.00;;;7.40
11849;BMP180;5983;49.966;8.052;2024-02-14T04:36:55;100823.00;;;7.40
11849;BMP180;5983;49.966;8.052;2024-02-14T04:39:22;100820.00;;;7.40
11849;BMP180;5983;49.966;8.052;2024-02-14T04:41:50;100823.00;;;7.40
11849;BMP180;5983;49.966;8.052;2024-02-14T04:44:18;100821.00;;;7.40
11849;BMP180;5983;49.966;8.052;2024-02-14T04:46:44;100822.00;;;7.40
11849;BMP180;5983;49.966;8.052;2024-02-14T04:49:11;100820.00;;;7.40
11849;BMP180;5983;49.966;8.052;2024-02-14T04:51:40;100811.00;;;7.50
11849;BMP180;5983;49.966;8.052;2024-02-14T04:54:07;100809.00;;;7.50
11849;BMP180;5983;49.966;8.052;2024-02-14T04:56:34;100793.00;;;7.60
11849;BMP180;5983;49.966;8.052;2024-02-14T04:59:02;100792.00;;;7.50
11849;BMP180;5983;49.966;8.052;2024-02-14T05:01:30;100794.00;;;7.50
11849;BMP180;5983;49.966;8.052;2024-02-14T05:03:57;100797.00;;;7.60
11849;BMP180;5983;49.966;8.052;2024-02-14T05:06:23;100792.00;;;7.60
11849;BMP180;5983;49.966;8.052;2024-02-14T05:08:50;100797.00;;;7.60
11849;BMP180;5983;49.966;8.052;2024-02-14T05:11:17;100805.00;;;7.60
11849;BMP180;5983;49.966;8.052;2024-02-14T05:13:44;100813.00;;;7.70
11849;BMP180;5983;49.966;8.052;2024-02-14T05:16:13;100815.00;;;7.80
11849;BMP180;5983;49.966;8.052;2024-02-14T05:18:40;100814.00;;;7.90
11849;BMP180;5983;49.966;8.052;2024-02-14T05:21:07;100819.00;;;8.00
11849;BMP180;5983;49.966;8.052;2024-02-14T05:23:34;100822.00;;;8.00
11849;BMP180;5983;49.966;8.052;2024-02-14T05:26:01;100821.00;;;8.10
11849;BMP180;5983;49.966;8.052;2024-02-14T05:28:28;100820.00;;;8.10
11849;BMP180;5983;49.966;8.052;2024-02-14T05:30:55;100807.00;;;8.20
11849;BMP180;5983;49.966;8.052;2024-02-14T05:33:23;100812.00;;;8.20
11849;BMP180;5983;49.966;8.052;2024-02-14T05:35:51;100821.00;;;8.30
11849;BMP180;5983;49.966;8.052;2024-02-14T05:38:18;100818.00;;;8.30
11849;BMP180;5983;49.966;8.052;2024-02-14T05:40:45;100821.00;;;8.30
11849;BMP180;5983;49.966;8.052;2024-02-14T05:43:12;100832.00;;;8.30
11849;BMP180;5983;49.966;8.052;2024-02-14T05:45:38;100839.00;;;8.30
11849;BMP180;5983;49.966;8.052;2024-02-14T05:48:06;100832.00;;;8.40
11849;BMP180;5983;49.966;8.052;2024-02-14T05:50:34;100832.00;;;8.40
11849;BMP180;5983;49.966;8.052;2024-02-14T05:53:03;100836.00;;;8.40
11849;BMP180;5983;49.966;8.052;2024-02-14T05:55:30;100834.00;;;8.50
11849;BMP180;5983;49.966;8.052;2024-02-14T05:57:56;100827.00;;;8.50
11849;BMP180;5983;49.966;8.052;2024-02-14T06:00:24;100820.00;;;8.50
11849;BMP180;5983;49.966;8.052;2024-02-14T06:02:52;100824.00;;;8.50
11849;BMP180;5983;49.966;8.052;2024-02-14T06:05:18;100822.00;;;8.50
11849;BMP180;5983;49.966;8.052;2024-02-14T06:07:47;100818.00;;;8.50
11849;BMP180;5983;49.966;8.052;2024-02-14T06:10:13;100831.00;;;8.50
11849;BMP180;5983;49.966;8.052;2024-02-14T06:12:40;100822.00;;;8.50
11849;BMP180;5983;49.966;8.052;2024-02-14T06:15:08;100822.00;;;8.50
11849;BMP180;5983;49.966;8.052;2024-02-14T06:17:35;100834.00;;;8.50
11849;BMP180;5983;49.966;8.052;2024-02-14T06:20:02;100847.00;;;8.50
11849;BMP180;5983;49.966;8.052;2024-02-14T06:22:32;100850.00;;;8.50
11849;BMP180;5983;49.966;8.052;2024-02-14T06:25:01;100844.00;;;8.60
11849;BMP180;5983;49.966;8.052;2024-02-14T06:27:31;100836.00;;;8.60
11849;BMP180;5983;49.966;8.052;2024-02-14T06:29:58;100831.00;;;8.60
11849;BMP180;5983;49.966;8.052;2024-02-14T06:32:26;100834.00;;;8.60
11849;BMP180;5983;49.966;8.052;2024-02-14T06:34:52;100852.00;;;8.70
11849;BMP180;5983;49.966;8.052;2024-02-14T06:37:19;100845.00;;;8.60
11849;BMP180;5983;49.966;8.052;2024-02-14T06:39:46;100848.00;;;8.60
11849;BMP180;5983;49.966;8.052;2024-02-14T06:42:15;100849.00;;;8.60
11849;BMP180;5983;49.966;8.052;2024-02-14T06:44:41;100865.00;;;8.60
11849;BMP180;5983;49.966;8.052;2024-02-14T06:47:08;100867.00;;;8.70
11849;BMP180;5983;49.966;8.052;2024-02-14T06:49:35;100865.00;;;8.70
11849;BMP180;5983;49.966;8.052;2024-02-14T06:52:02;100865.00;;;8.70
11849;BMP180;5983;49.966;8.052;2024-02-14T06:54:29;100862.00;;;8.70
11849;BMP180;5983;49.966;8.052;2024-02-14T06:56:55;100872.00;;;8.70
11849;BMP180;5983;49.966;8.052;2024-02-14T06:59:23;100868.00;;;8.70
11849;BMP180;5983;49.966;8.052;2024-02-14T07:01:51;100877.00;;;8.70
11849;BMP180;5983;49.966;8.052;2024-02-14T07:04:20;100875.00;;;8.70
11849;BMP180;5983;49.966;8.052;2024-02-14T07:06:51;100878.00;;;8.70
11849;BMP180;5983;49.966;8.052;2024-02-14T07:09:18;100883.00;;;8.70
11849;BMP180;5983;49.966;8.052;2024-02-14T07:11:45;100883.00;;;8.80
11849;BMP180;5983;49.966;8.052;2024-02-14T07:14:12;100893.00;;;8.80
11849;BMP180;5983;49.966;8.052;2024-02-14T07:16:40;100897.00;;;8.80
11849;BMP180;5983;49.966;8.052;2024-02-14T07:19:07;100902.00;;;8.90
11849;BMP180;5983;49.966;8.052;2024-02-14T07:21:34;100893.00;;;8.90
11849;BMP180;5983;49.966;8.052;2024-02-14T07:24:04;100885.00;;;8.90
11849;BMP180;5983;49.966;8.052;2024-02-14T07:26:30;100890.00;;;8.90
11849;BMP180;5983;49.966;8.052;2024-02-14T07:28:57;100878.00;;;8.90
11849;BMP180;5983;49.966;8.052;2024-02-14T07:31:28;100888.00;;;8.90
11849;BMP180;5983;49.966;8.052;2024-02-14T07:33:57;100894.00;;;8.90
11849;BMP180;5983;49.966;8.052;2024-02-14T07:36:24;100895.00;;;8.90
11849;BMP180;5983;49.966;8.052;2024-02-14T07:38:50;100891.00;;;8.90
11849;BMP180;5983;49.966;8.052;2024-02-14T07:41:17;100901.00;;;8.90
11849;BMP180;5983;49.966;8.052;2024-02-14T07:43:44;100907.00;;;8.90
11849;BMP180;5983;49.966;8.052;2024-02-14T07:46:10;100909.00;;;8.90
11849;BMP180;5983;49.966;8.052;2024-02-14T07:48:37;100909.00;;;9.00
11849;BMP180;5983;49.966;8.052;2024-02-14T07:51:08;100917.00;;;9.00
11849;BMP180;5983;49.966;8.052;2024-02-14T07:53:34;100914.00;;;9.10
11849;BMP180;5983;49.966;8.052;2024-02-14T07:56:01;100918.00;;;9.10
11849;BMP180;5983;49.966;8.052;2024-02-14T07:58:28;100928.00;;;9.20
11849;BMP180;5983;49.966;8.052;2024-02-14T08:00:55;100921.00;;;9.20
11849;BMP180;5983;49.966;8.052;2024-02-14T08:03:21;100920.00;;;9.20
11849;BMP180;5983;49.966;8.052;2024-02-14T08:05:50;100921.00;;;9.30
11849;BMP180;5983;49.966;8.052;2024-02-14T08:08:20;100908.00;;;9.40
11849;BMP180;5983;49.966;8.052;2024-02-14T08:10:46;100899.00;;;9.50
11849;BMP180;5983;49.966;8.052;2024-02-14T08:13:13;100909.00;;;9.60
11849;BMP180;5983;49.966;8.052;2024-02-14T08:15:41;100916.00;;;9.70
11849;BMP180;5983;49.966;8.052;2024-02-14T08:18:08;100918.00;;;9.70
11849;BMP180;5983;49.966;8.052;2024-02-14T08:20:35;100919.00;;;9.70
11849;BMP180;5983;49.966;8.052;2024-02-14T08:23:02;100919.00;;;9.80
11849;BMP180;5983;49.966;8.052;2024-02-14T08:25:30;100920.00;;;9.70
11849;BMP180;5983;49.966;8.052;2024-02-14T08:27:57;100914.00;;;9.70
11849;BMP180;5983;49.966;8.052;2024-02-14T08:30:24;100914.00;;;9.60
11849;BMP180;5983;49.966;8.052;2024-02-14T08:32:50;100913.00;;;9.60
11849;BMP180;5983;49.966;8.052;2024-02-14T08:35:17;100927.00;;;9.60
11849;BMP180;5983;49.966;8.052;2024-02-14T08:37:44;100926.00;;;9.60
11849;BMP180;5983;49.966;8.052;2024-02-14T08:40:11;100935.00;;;9.60
11849;BMP180;5983;49.966;8.052;2024-02-14T08:42:39;100940.00;;;9.70
11849;BMP180;5983;49.966;8.052;2024-02-14T08:45:06;100936.00;;;9.70
11849;BMP180;5983;49.966;8.052;2024-02-14T08:47:33;100938.00;;;9.70
11849;BMP180;5983;49.966;8.052;2024-02-14T08:50:00;100934.00;;;9.80
11849;BMP180;5983;49.966;8.052;2024-02-14T08:52:28;100935.00;;;9.70
11849;BMP180;5983;49.966;8.052;2024-02-14T08:54:55;100929.00;;;9.70
11849;BMP180;5983;49.966;8.052;2024-02-14T08:57:21;100938.00;;;9.80
11849;BMP180;5983;49.966;8.052;2024-02-14T08:59:50;100946.00;;;9.80
11849;BMP180;5983;49.966;8.052;2024-02-14T09:02:17;100944.00;;;9.80
11849;BMP180;5983;49.966;8.052;2024-02-14T09:04:43;100937.00;;;9.80
11849;BMP180;5983;49.966;8.052;2024-02-14T09:07:10;100940.00;;;9.80
11849;BMP180;5983;49.966;8.052;2024-02-14T09:09:37;100950.00;;;9.90
11849;BMP180;5983;49.966;8.052;2024-02-14T09:12:04;100939.00;;;9.90
11849;BMP180;5983;49.966;8.052;2024-02-14T09:14:31;100942.00;;;9.90
11849;BMP180;5983;49.966;8.052;2024-02-14T09:16:59;100935.00;;;9.90
11849;BMP180;5983;49.966;8.052;2024-02-14T09:19:26;100936.00;;;9.90
11849;BMP180;5983;49.966;8.052;2024-02-14T09:21:55;100942.00;;;9.90
11849;BMP180;5983;49.966;8.052;2024-02-14T09:24:22;100946.00;;;10.00
11849;BMP180;5983;49.966;8.052;2024-02-14T09:26:49;100944.00;;;10.00
11849;BMP180;5983;49.966;8.052;2024-02-14T09:29:15;100937.00;;;10.10
11849;BMP180;5983;49.966;8.052;2024-02-14T09:31:42;100945.00;;;10.10
11849;BMP180;5983;49.966;8.052;2024-02-14T09:34:14;100956.00;;;10.20
11849;BMP180;5983;49.966;8.052;2024-02-14T09:36:43;100942.00;;;10.20
11849;BMP180;5983;49.966;8.052;2024-02-14T09:39:10;100943.00;;;10.20
11849;BMP180;5983;49.966;8.052;2024-02-14T09:41:38;100950.00;;;10.20
11849;BMP180;5983;49.966;8.052;2024-02-14T09:44:06;100943.00;;;10.20
11849;BMP180;5983;49.966;8.052;2024-02-14T09:46:35;100939.00;;;10.30
11849;BMP180;5983;49.966;8.052;2024-02-14T09:49:03;100949.00;;;10.30
11849;BMP180;5983;49.966;8.052;2024-02-14T09:51:31;100953.00;;;10.40
11849;BMP180;5983;49.966;8.052;2024-02-14T09:53:59;100946.00;;;10.40
11849;BMP180;5983;49.966;8.052;2024-02-14T09:56:27;100946.00;;;10.50
11849;BMP180;5983;49.966;8.052;2024-02-14T09:58:55;100944.00;;;10.50
11849;BMP180;5983;49.966;8.052;2024-02-14T10:01:22;100948.00;;;10.60
11849;BMP180;5983;49.966;8.052;2024-02-14T10:03:49;100941.00;;;10.60
11849;BMP180;5983;49.966;8.052;2024-02-14T10:06:17;100952.00;;;10.60
11849;BMP180;5983;49.966;8.052;2024-02-14T10:08:45;100949.00;;;10.70
11849;BMP180;5983;49.966;8.052;2024-02-14T10:11:12;100946.00;;;10.70
11849;BMP180;5983;49.966;8.052;2024-02-14T10:13:40;100958.00;;;10.80
11849;BMP180;5983;49.966;8.052;2024-02-14T10:16:07;100960.00;;;10.90
11849;BMP180;5983;49.966;8.052;2024-02-14T10:18:34;100958.00;;;10.90
11849;BMP180;5983;49.966;8.052;2024-02-14T10:21:01;100956.00;;;10.90
11849;BMP180;5983;49.966;8.052;2024-02-14T10:23:27;100966.00;;;11.00
11849;BMP180;5983;49.966;8.052;2024-02-14T10:25:57;100961.00;;;11.00
11849;BMP180;5983;49.966;8.052;2024-02-14T10:28:24;100971.00;;;11.10
11849;BMP180;5983;49.966;8.052;2024-02-14T10:30:51;100972.00;;;11.20
11849;BMP180;5983;49.966;8.052;2024-02-14T10:33:18;100981.00;;;11.40
11849;BMP180;5983;49.966;8.052;2024-02-14T10:35:47;100980.00;;;11.60
11849;BMP180;5983;49.966;8.052;2024-02-14T10:38:16;100978.00;;;11.70
11849;BMP180;5983;49.966;8.052;2024-02-14T10:40:47;100981.00;;;11.80
11849;BMP180;5983;49.966;8.052;2024-02-14T10:43:15;100979.00;;;12.00
11849;BMP180;5983;49.966;8.052;2024-02-14T10:45:42;100979.00;;;12.10
11849;BMP180;5983;49.966;8.052;2024-02-14T10:48:11;100978.00;;;12.10
11849;BMP180;5983;49.966;8.052;2024-02-14T10:50:40;100977.00;;;12.10
11849;BMP180;5983;49.966;8.052;2024-02-14T10:53:12;100972.00;;;12.10
11849;BMP180;5983;49.966;8.052;2024-02-14T10:55:40;100967.00;;;12.20
11849;BMP180;5983;49.966;8.052;2024-02-14T10:58:11;100969.00;;;12.40
11849;BMP180;5983;49.966;8.052;2024-02-14T11:00:41;100967.00;;;12.60
11849;BMP180;5983;49.966;8.052;2024-02-14T11:03:08;100965.00;;;12.80
11849;BMP180;5983;49.966;8.052;2024-02-14T11:05:43;100951.00;;;12.80
11849;BMP180;5983;49.966;8.052;2024-02-14T11:08:13;100956.00;;;12.90
11849;BMP180;5983;49.966;8.052;2024-02-14T11:10:40;100951.00;;;12.90
11849;BMP180;5983;49.966;8.052;2024-02-14T11:13:10;100951.00;;;12.90
11849;BMP180;5983;49.966;8.052;2024-02-14T11:15:44;100951.00;;;12.70
11849;BMP180;5983;49.966;8.052;2024-02-14T11:18:11;100965.00;;;12.70
11849;BMP180;5983;49.966;8.052;2024-02-14T11:20:38;100959.00;;;12.60
11849;BMP180;5983;49.966;8.052;2024-02-14T11:23:07;100963.00;;;12.50
11849;BMP180;5983;49.966;8.052;2024-02-14T11:25:37;100967.00;;;12.40
11849;BMP180;5983;49.966;8.052;2024-02-14T11:28:12;100970.00;;;12.20
11849;BMP180;5983;49.966;8.052;2024-02-14T11:30:42;100962.00;;;12.10
11849;BMP180;5983;49.966;8.052;2024-02-14T11:33:12;100967.00;;;12.00
11849;BMP180;5983;49.966;8.052;2024-02-14T11:35:40;100964.00;;;12.00
11849;BMP180;5983;49.966;8.052;2024-02-14T11:38:06;100952.00;;;11.90
11849;BMP180;5983;49.966;8.052;2024-02-14T11:40:33;100965.00;;;11.80
11849;BMP180;5983;49.966;8.052;2024-02-14T11:43:00;100966.00;;;11.90
11849;BMP180;5983;49.966;8.052;2024-02-14T11:45:27;100966.00;;;11.90
11849;BMP180;5983;49.966;8.052;2024-02-14T11:47:55;100959.00;;;11.90
11849;BMP180;5983;49.966;8.052;2024-02-14T11:50:22;100957.00;;;11.90
11849;BMP180;5983;49.966;8.052;2024-02-14T11:52:48;100961.00;;;11.90
11849;BMP180;5983;49.966;8.052;2024-02-14T11:55:17;100959.00;;;11.90
11849;BMP180;5983;49.966;8.052;2024-02-14T11:57:44;100945.00;;;12.00
11849;BMP180;5983;49.966;8.052;2024-02-14T12:00:14;100950.00;;;12.00
11849;BMP180;5983;49.966;8.052;2024-02-14T12:02:41;100960.00;;;12.00
11849;BMP180;5983;49.966;8.052;2024-02-14T12:05:09;100953.00;;;12.00
11849;BMP180;5983;49.966;8.052;2024-02-14T12:07:36;100939.00;;;12.00
11849;BMP180;5983;49.966;8.052;2024-02-14T12:10:03;100939.00;;;12.10
11849;BMP180;5983;49.966;8.052;2024-02-14T12:12:31;100934.00;;;12.20
11849;BMP180;5983;49.966;8.052;2024-02-14T12:15:02;100940.00;;;12.40
11849;BMP180;5983;49.966;8.052;2024-02-14T12:17:29;100933.00;;;12.50
11849;BMP180;5983;49.966;8.052;2024-02-14T12:20:05;100939.00;;;12.50
11849;BMP180;5983;49.966;8.052;2024-02-14T12:22:33;100937.00;;;12.60
11849;BMP180;5983;49.966;8.052;2024-02-14T12:25:00;100938.00;;;12.60
11849;BMP180;5983;49.966;8.052;2024-02-14T12:27:31;100945.00;;;12.60
11849;BMP180;5983;49.966;8.052;2024-02-14T12:32:26;100936.00;;;12.50
11849;BMP180;5983;49.966;8.052;2024-02-14T12:34:55;100940.00;;;12.50
11849;BMP180;5983;49.966;8.052;2024-02-14T12:37:22;100937.00;;;12.40
11849;BMP180;5983;49.966;8.052;2024-02-14T12:39:50;100936.00;;;12.30
11849;BMP180;5983;49.966;8.052;2024-02-14T12:42:16;100940.00;;;12.20
11849;BMP180;5983;49.966;8.052;2024-02-14T12:44:44;100946.00;;;12.20
11849;BMP180;5983;49.966;8.052;2024-02-14T12:47:10;100946.00;;;12.10
11849;BMP180;5983;49.966;8.052;2024-02-14T12:49:37;100942.00;;;12.00
11849;BMP180;5983;49.966;8.052;2024-02-14T12:52:04;100944.00;;;11.90
11849;BMP180;5983;49.966;8.052;2024-02-14T12:54:31;100944.00;;;11.90
11849;BMP180;5983;49.966;8.052;2024-02-14T12:56:59;100946.00;;;11.80
11849;BMP180;5983;49.966;8.052;2024-02-14T12:59:26;100954.00;;;11.80
11849;BMP180;5983;49.966;8.052;2024-02-14T13:01:53;100955.00;;;11.70
11849;BMP180;5983;49.966;8.052;2024-02-14T13:04:20;100945.00;;;11.70
11849;BMP180;5983;49.966;8.052;2024-02-14T13:06:47;100948.00;;;11.60
11849;BMP180;5983;49.966;8.052;2024-02-14T13:09:13;100950.00;;;11.60
11849;BMP180;5983;49.966;8.052;2024-02-14T13:11:40;100949.00;;;11.60
11849;BMP180;5983;49.966;8.052;2024-02-14T13:14:09;100941.00;;;11.60
11849;BMP180;5983;49.966;8.052;2024-02-14T13:16:46;100934.00;;;11.60
11849;BMP180;5983;49.966;8.052;2024-02-14T13:19:12;100927.00;;;11.60
11849;BMP180;5983;49.966;8.052;2024-02-14T13:21:39;100932.00;;;11.60
11849;BMP180;5983;49.966;8.052;2024-02-14T13:24:11;100928.00;;;11.60
11849;BMP180;5983;49.966;8.052;2024-02-14T13:26:39;100925.00;;;11.70
11849;BMP180;5983;49.966;8.052;2024-02-14T13:29:06;100931.00;;;11.70
11849;BMP180;5983;49.966;8.052;2024-02-14T13:31:34;100932.00;;;11.80
11849;BMP180;5983;49.966;8.052;2024-02-14T13:34:01;100933.00;;;11.70
11849;BMP180;5983;49.966;8.052;2024-02-14T13:36:29;100933.00;;;11.70
11849;BMP180;5983;49.966;8.052;2024-02-14T13:38:57;100922.00;;;11.60
11849;BMP180;5983;49.966;8.052;2024-02-14T13:41:24;100924.00;;;11.60
11849;BMP180;5983;49.966;8.052;2024-02-14T13:43:50;100914.00;;;11.60
11849;BMP180;5983;49.966;8.052;2024-02-14T13:46:17;100911.00;;;11.50
11849;BMP180;5983;49.966;8.052;2024-02-14T13:48:45;100918.00;;;11.50
11849;BMP180;5983;49.966;8.052;2024-02-14T13:51:12;100918.00;;;11.50
11849;BMP180;5983;49.966;8.052;2024-02-14T13:53:39;100929.00;;;11.50
11849;BMP180;5983;49.966;8.052;2024-02-14T13:56:06;100932.00;;;11.50
11849;BMP180;5983;49.966;8.052;2024-02-14T13:58:33;100930.00;;;11.50
11849;BMP180;5983;49.966;8.052;2024-02-14T14:01:00;100929.00;;;11.40
11849;BMP180;5983;49.966;8.052;2024-02-14T14:03:26;100931.00;;;11.40
11849;BMP180;5983;49.966;8.052;2024-02-14T14:05:56;100921.00;;;11.40
11849;BMP180;5983;49.966;8.052;2024-02-14T14:08:23;100933.00;;;11.40
11849;BMP180;5983;49.966;8.052;2024-02-14T14:10:50;100925.00;;;11.40
11849;BMP180;5983;49.966;8.052;2024-02-14T14:13:16;100923.00;;;11.40
11849;BMP180;5983;49.966;8.052;2024-02-14T14:15:43;100921.00;;;11.40
11849;BMP180;5983;49.966;8.052;2024-02-14T14:18:10;100929.00;;;11.40
11849;BMP180;5983;49.966;8.052;2024-02-14T14:20:37;100927.00;;;11.40
11849;BMP180;5983;49.966;8.052;2024-02-14T14:23:06;100921.00;;;11.30